Congress, Ohio
Current Conditions -  °F | °C
As of 1:56 PM on Wednesday 26 Nov 2014 (Local Time) from KBJJ Reporting Station
Overcast Overcast  
Wind Chill: 35°   Ceiling: 3500
Heat Index: 35°   Visibility: 10mi
Dew Point: 26°   Wind: 3mph
Humidity: 70%   Direction: 30°NNE
Pressure: 30.04"   Gusts: NA
Location:  40.9441°N, 82.1006°W
Report Text: KBJJ 261856Z AUTO 03003KT 10SM OVC035 02/M03 A3004 RMK AO2 SLP182 T00171033 TSNO
Loading
Personal Weather Stations






























Interactive Weather Map New forecast layout! Learn more

10-Day Weather Forecast

Advertisements
Track Severe Weather on mobile